sensor_id;sensor_type;location;lat;lon;timestamp;pressure;altitude;pressure_sealevel;temperature;humidity
44839;BME280;30576;42.098;24.876;2023-04-27T00:01:13;99207.06;;;12.45;56.71
44839;BME280;30576;42.098;24.876;2023-04-27T00:03:39;99211.66;;;12.40;57.46
44839;BME280;30576;42.098;24.876;2023-04-27T00:06:06;99218.06;;;12.61;56.47
44839;BME280;30576;42.098;24.876;2023-04-27T00:08:32;99224.69;;;12.46;56.92
44839;BME280;30576;42.098;24.876;2023-04-27T00:10:57;99229.97;;;12.46;56.66
44839;BME280;30576;42.098;24.876;2023-04-27T00:13:23;99220.16;;;12.49;56.25
44839;BME280;30576;42.098;24.876;2023-04-27T00:15:50;99238.69;;;12.49;55.85
44839;BME280;30576;42.098;24.876;2023-04-27T00:18:17;99239.66;;;12.47;56.47
44839;BME280;30576;42.098;24.876;2023-04-27T00:20:42;99236.81;;;12.53;56.89
44839;BME280;30576;42.098;24.876;2023-04-27T00:23:08;99237.63;;;12.55;55.93
44839;BME280;30576;42.098;24.876;2023-04-27T00:25:34;99247.72;;;12.42;57.58
44839;BME280;30576;42.098;24.876;2023-04-27T00:27:59;99247.88;;;12.38;57.52
44839;BME280;30576;42.098;24.876;2023-04-27T00:30:25;99251.47;;;12.35;57.45
44839;BME280;30576;42.098;24.876;2023-04-27T00:32:50;99257.09;;;12.23;57.82
44839;BME280;30576;42.098;24.876;2023-04-27T00:35:16;99262.31;;;12.26;58.90
44839;BME280;30576;42.098;24.876;2023-04-27T00:37:44;99265.22;;;12.16;59.41
44839;BME280;30576;42.098;24.876;2023-04-27T00:40:10;99268.19;;;12.04;60.83
44839;BME280;30576;42.098;24.876;2023-04-27T00:42:36;99278.78;;;12.04;60.34
44839;BME280;30576;42.098;24.876;2023-04-27T00:45:01;99276.41;;;11.93;61.96
44839;BME280;30576;42.098;24.876;2023-04-27T00:47:29;99280.13;;;11.85;62.59
44839;BME280;30576;42.098;24.876;2023-04-27T00:49:55;99286.94;;;11.95;63.66
44839;BME280;30576;42.098;24.876;2023-04-27T00:52:20;99278.66;;;11.74;63.88
44839;BME280;30576;42.098;24.876;2023-04-27T00:54:47;99281.72;;;11.59;65.54
44839;BME280;30576;42.098;24.876;2023-04-27T00:57:14;99285.06;;;11.65;65.90
44839;BME280;30576;42.098;24.876;2023-04-27T00:59:41;99290.56;;;11.56;64.87
44839;BME280;30576;42.098;24.876;2023-04-27T01:02:08;99292.66;;;11.43;65.90
44839;BME280;30576;42.098;24.876;2023-04-27T01:04:33;99296.97;;;11.46;65.17
44839;BME280;30576;42.098;24.876;2023-04-27T01:07:01;99298.84;;;11.42;66.63
44839;BME280;30576;42.098;24.876;2023-04-27T01:09:26;99288.53;;;11.32;65.59
44839;BME280;30576;42.098;24.876;2023-04-27T01:11:53;99296.34;;;11.36;65.06
44839;BME280;30576;42.098;24.876;2023-04-27T01:14:18;99300.78;;;11.36;65.56
44839;BME280;30576;42.098;24.876;2023-04-27T01:16:45;99313.91;;;11.39;64.25
44839;BME280;30576;42.098;24.876;2023-04-27T01:19:11;99319.81;;;11.49;64.82
44839;BME280;30576;42.098;24.876;2023-04-27T01:21:37;99318.41;;;11.34;65.05
44839;BME280;30576;42.098;24.876;2023-04-27T01:24:03;99322.16;;;11.25;65.42
44839;BME280;30576;42.098;24.876;2023-04-27T01:26:29;99322.78;;;11.35;65.23
44839;BME280;30576;42.098;24.876;2023-04-27T01:28:57;99324.69;;;11.29;64.58
44839;BME280;30576;42.098;24.876;2023-04-27T01:31:23;99327.00;;;11.43;65.02
44839;BME280;30576;42.098;24.876;2023-04-27T01:33:49;99334.41;;;11.27;64.60
44839;BME280;30576;42.098;24.876;2023-04-27T01:36:16;99334.75;;;11.12;65.18
44839;BME280;30576;42.098;24.876;2023-04-27T01:38:41;99333.75;;;11.18;66.10
44839;BME280;30576;42.098;24.876;2023-04-27T01:41:07;99334.78;;;11.10;65.76
44839;BME280;30576;42.098;24.876;2023-04-27T01:43:33;99330.81;;;11.30;65.51
44839;BME280;30576;42.098;24.876;2023-04-27T01:46:08;99339.59;;;11.31;65.34
44839;BME280;30576;42.098;24.876;2023-04-27T01:48:34;99344.38;;;11.15;64.29
44839;BME280;30576;42.098;24.876;2023-04-27T01:51:00;99345.03;;;11.24;64.75
44839;BME280;30576;42.098;24.876;2023-04-27T01:53:25;99348.34;;;11.34;63.82
44839;BME280;30576;42.098;24.876;2023-04-27T01:55:53;99350.75;;;11.43;63.38
44839;BME280;30576;42.098;24.876;2023-04-27T01:58:19;99352.03;;;11.27;62.65
44839;BME280;30576;42.098;24.876;2023-04-27T02:00:45;99340.28;;;11.40;62.00
44839;BME280;30576;42.098;24.876;2023-04-27T02:03:10;99344.59;;;11.43;63.26
44839;BME280;30576;42.098;24.876;2023-04-27T02:05:35;99347.19;;;11.44;61.53
44839;BME280;30576;42.098;24.876;2023-04-27T02:08:01;99340.97;;;11.47;61.50
44839;BME280;30576;42.098;24.876;2023-04-27T02:10:26;99349.81;;;11.46;61.69
44839;BME280;30576;42.098;24.876;2023-04-27T02:12:52;99359.22;;;11.58;61.95
44839;BME280;30576;42.098;24.876;2023-04-27T02:15:17;99355.63;;;11.60;61.48
44839;BME280;30576;42.098;24.876;2023-04-27T02:17:42;99356.53;;;11.59;60.65
44839;BME280;30576;42.098;24.876;2023-04-27T02:20:08;99351.47;;;11.50;60.55
44839;BME280;30576;42.098;24.876;2023-04-27T02:22:34;99357.84;;;11.41;60.38
44839;BME280;30576;42.098;24.876;2023-04-27T02:25:00;99354.19;;;11.47;59.24
44839;BME280;30576;42.098;24.876;2023-04-27T02:27:25;99360.09;;;11.57;58.74
44839;BME280;30576;42.098;24.876;2023-04-27T02:29:50;99360.88;;;11.62;59.65
44839;BME280;30576;42.098;24.876;2023-04-27T02:32:16;99366.22;;;11.60;59.68
44839;BME280;30576;42.098;24.876;2023-04-27T02:34:41;99362.91;;;11.51;58.84
44839;BME280;30576;42.098;24.876;2023-04-27T02:37:07;99368.31;;;11.44;58.81
44839;BME280;30576;42.098;24.876;2023-04-27T02:39:32;99375.47;;;11.41;58.38
44839;BME280;30576;42.098;24.876;2023-04-27T02:41:58;99373.44;;;11.52;58.15
44839;BME280;30576;42.098;24.876;2023-04-27T02:44:24;99376.25;;;11.44;58.14
44839;BME280;30576;42.098;24.876;2023-04-27T02:46:49;99376.03;;;11.54;57.67
44839;BME280;30576;42.098;24.876;2023-04-27T02:49:15;99386.56;;;11.55;57.83
44839;BME280;30576;42.098;24.876;2023-04-27T02:51:40;99389.16;;;11.57;57.02
44839;BME280;30576;42.098;24.876;2023-04-27T02:54:06;99389.06;;;11.61;57.22
44839;BME280;30576;42.098;24.876;2023-04-27T02:56:31;99392.09;;;11.44;57.28
44839;BME280;30576;42.098;24.876;2023-04-27T02:58:56;99390.06;;;11.57;56.46
44839;BME280;30576;42.098;24.876;2023-04-27T03:01:22;99387.16;;;11.68;56.14
44839;BME280;30576;42.098;24.876;2023-04-27T03:03:47;99397.56;;;11.74;55.53
44839;BME280;30576;42.098;24.876;2023-04-27T03:06:13;99393.09;;;11.40;55.85
44839;BME280;30576;42.098;24.876;2023-04-27T03:08:38;99401.22;;;11.69;55.46
44839;BME280;30576;42.098;24.876;2023-04-27T03:11:03;99399.22;;;11.41;55.37
44839;BME280;30576;42.098;24.876;2023-04-27T03:13:29;99395.56;;;11.48;56.03
44839;BME280;30576;42.098;24.876;2023-04-27T03:15:55;99398.81;;;11.59;55.15
44839;BME280;30576;42.098;24.876;2023-04-27T03:18:20;99402.44;;;11.54;54.86
44839;BME280;30576;42.098;24.876;2023-04-27T03:20:46;99401.97;;;11.74;55.24
44839;BME280;30576;42.098;24.876;2023-04-27T03:23:11;99400.09;;;11.79;55.09
44839;BME280;30576;42.098;24.876;2023-04-27T03:25:37;99410.00;;;11.69;54.69
44839;BME280;30576;42.098;24.876;2023-04-27T03:28:03;99406.63;;;11.64;55.46
44839;BME280;30576;42.098;24.876;2023-04-27T03:30:40;99404.84;;;11.64;54.79
44839;BME280;30576;42.098;24.876;2023-04-27T03:33:26;99408.91;;;11.42;55.69
44839;BME280;30576;42.098;24.876;2023-04-27T03:35:55;99413.19;;;11.46;55.27
44839;BME280;30576;42.098;24.876;2023-04-27T03:38:22;99423.69;;;11.49;55.44
44839;BME280;30576;42.098;24.876;2023-04-27T03:40:47;99423.53;;;11.55;54.16
44839;BME280;30576;42.098;24.876;2023-04-27T03:43:13;99420.97;;;11.52;54.97
44839;BME280;30576;42.098;24.876;2023-04-27T03:45:42;99421.06;;;11.47;54.56
44839;BME280;30576;42.098;24.876;2023-04-27T03:48:07;99417.78;;;11.38;54.15
44839;BME280;30576;42.098;24.876;2023-04-27T03:50:39;99426.19;;;11.55;54.00
44839;BME280;30576;42.098;24.876;2023-04-27T03:53:04;99425.13;;;11.64;54.53
44839;BME280;30576;42.098;24.876;2023-04-27T03:55:30;99429.78;;;11.53;53.40
44839;BME280;30576;42.098;24.876;2023-04-27T03:57:56;99428.56;;;11.66;54.66
44839;BME280;30576;42.098;24.876;2023-04-27T04:00:21;99434.09;;;11.55;53.79
44839;BME280;30576;42.098;24.876;2023-04-27T04:02:48;99440.38;;;11.51;54.18
44839;BME280;30576;42.098;24.876;2023-04-27T04:05:19;99429.69;;;11.57;54.17
44839;BME280;30576;42.098;24.876;2023-04-27T04:07:46;99437.88;;;11.45;53.85
44839;BME280;30576;42.098;24.876;2023-04-27T04:10:12;99444.00;;;11.47;54.14
44839;BME280;30576;42.098;24.876;2023-04-27T04:12:38;99441.25;;;11.52;54.14
44839;BME280;30576;42.098;24.876;2023-04-27T04:15:03;99445.59;;;11.54;53.90
44839;BME280;30576;42.098;24.876;2023-04-27T04:17:38;99449.69;;;11.68;53.95
44839;BME280;30576;42.098;24.876;2023-04-27T04:20:03;99449.84;;;11.60;54.87
44839;BME280;30576;42.098;24.876;2023-04-27T04:22:35;99457.03;;;11.55;54.38
44839;BME280;30576;42.098;24.876;2023-04-27T04:25:02;99457.97;;;11.52;53.77
44839;BME280;30576;42.098;24.876;2023-04-27T04:27:33;99462.28;;;11.56;54.09
44839;BME280;30576;42.098;24.876;2023-04-27T04:29:58;99456.78;;;11.65;55.02
44839;BME280;30576;42.098;24.876;2023-04-27T04:32:24;99466.13;;;11.80;53.34
44839;BME280;30576;42.098;24.876;2023-04-27T04:34:55;99465.88;;;11.93;53.05
44839;BME280;30576;42.098;24.876;2023-04-27T04:37:23;99474.31;;;12.07;54.52
44839;BME280;30576;42.098;24.876;2023-04-27T04:39:51;99470.09;;;12.00;52.29
44839;BME280;30576;42.098;24.876;2023-04-27T04:42:22;99473.59;;;12.02;53.17
44839;BME280;30576;42.098;24.876;2023-04-27T04:44:50;99481.38;;;12.08;53.14
44839;BME280;30576;42.098;24.876;2023-04-27T04:47:16;99477.97;;;12.02;51.64
44839;BME280;30576;42.098;24.876;2023-04-27T04:49:41;99477.75;;;12.11;52.18
44839;BME280;30576;42.098;24.876;2023-04-27T04:52:10;99483.34;;;11.98;52.06
44839;BME280;30576;42.098;24.876;2023-04-27T04:54:36;99482.03;;;11.79;52.22
44839;BME280;30576;42.098;24.876;2023-04-27T04:57:03;99477.97;;;12.02;52.09
44839;BME280;30576;42.098;24.876;2023-04-27T04:59:32;99487.66;;;12.03;52.28
44839;BME280;30576;42.098;24.876;2023-04-27T05:02:01;99497.34;;;12.04;52.15
44839;BME280;30576;42.098;24.876;2023-04-27T05:04:27;99490.72;;;12.22;52.06
44839;BME280;30576;42.098;24.876;2023-04-27T05:06:53;99495.59;;;12.03;51.58
44839;BME280;30576;42.098;24.876;2023-04-27T05:09:19;99500.50;;;11.80;52.61
44839;BME280;30576;42.098;24.876;2023-04-27T05:11:44;99500.31;;;11.88;52.69
44839;BME280;30576;42.098;24.876;2023-04-27T05:14:10;99497.63;;;11.90;52.47
44839;BME280;30576;42.098;24.876;2023-04-27T05:16:35;99500.81;;;12.06;51.75
44839;BME280;30576;42.098;24.876;2023-04-27T05:19:03;99504.03;;;12.17;50.85
44839;BME280;30576;42.098;24.876;2023-04-27T05:21:30;99509.59;;;12.06;51.81
44839;BME280;30576;42.098;24.876;2023-04-27T05:23:58;99514.38;;;11.89;50.00
44839;BME280;30576;42.098;24.876;2023-04-27T05:26:30;99508.44;;;11.79;50.40
44839;BME280;30576;42.098;24.876;2023-04-27T05:28:55;99509.41;;;12.14;51.92
44839;BME280;30576;42.098;24.876;2023-04-27T05:31:20;99508.94;;;12.32;52.04
44839;BME280;30576;42.098;24.876;2023-04-27T05:33:46;99517.69;;;12.36;51.30
44839;BME280;30576;42.098;24.876;2023-04-27T05:36:11;99515.38;;;12.24;49.78
44839;BME280;30576;42.098;24.876;2023-04-27T05:38:45;99515.63;;;12.47;50.41
44839;BME280;30576;42.098;24.876;2023-04-27T05:41:11;99515.13;;;12.33;50.20
44839;BME280;30576;42.098;24.876;2023-04-27T05:43:36;99519.16;;;12.48;49.83
44839;BME280;30576;42.098;24.876;2023-04-27T05:46:02;99523.53;;;12.49;49.69
44839;BME280;30576;42.098;24.876;2023-04-27T05:48:35;99528.78;;;12.16;50.31
44839;BME280;30576;42.098;24.876;2023-04-27T05:51:01;99532.16;;;12.21;48.81
44839;BME280;30576;42.098;24.876;2023-04-27T05:53:27;99529.84;;;12.43;48.31
44839;BME280;30576;42.098;24.876;2023-04-27T05:56:02;99532.50;;;12.43;48.25
44839;BME280;30576;42.098;24.876;2023-04-27T05:58:35;99536.88;;;12.44;48.72
44839;BME280;30576;42.098;24.876;2023-04-27T06:01:04;99541.91;;;12.55;48.66
44839;BME280;30576;42.098;24.876;2023-04-27T06:03:34;99536.56;;;12.57;48.71
44839;BME280;30576;42.098;24.876;2023-04-27T06:06:05;99545.81;;;12.75;49.00
44839;BME280;30576;42.098;24.876;2023-04-27T06:08:30;99548.09;;;12.54;48.30
44839;BME280;30576;42.098;24.876;2023-04-27T06:10:56;99542.84;;;12.52;48.67
44839;BME280;30576;42.098;24.876;2023-04-27T06:13:21;99544.31;;;12.97;48.22
44839;BME280;30576;42.098;24.876;2023-04-27T06:15:47;99543.06;;;13.11;48.53
44839;BME280;30576;42.098;24.876;2023-04-27T06:18:12;99532.34;;;13.15;47.89
44839;BME280;30576;42.098;24.876;2023-04-27T06:20:43;99544.22;;;13.00;46.46
44839;BME280;30576;42.098;24.876;2023-04-27T06:23:12;99545.81;;;13.07;46.86
44839;BME280;30576;42.098;24.876;2023-04-27T06:25:40;99542.25;;;13.08;48.56
44839;BME280;30576;42.098;24.876;2023-04-27T06:28:05;99550.69;;;13.23;47.75
44839;BME280;30576;42.098;24.876;2023-04-27T06:30:31;99550.81;;;13.18;47.39
44839;BME280;30576;42.098;24.876;2023-04-27T06:32:56;99546.97;;;13.30;48.98
44839;BME280;30576;42.098;24.876;2023-04-27T06:35:21;99543.56;;;13.25;46.06
44839;BME280;30576;42.098;24.876;2023-04-27T06:37:47;99548.84;;;13.25;48.37
44839;BME280;30576;42.098;24.876;2023-04-27T06:40:12;99550.28;;;13.38;46.55
44839;BME280;30576;42.098;24.876;2023-04-27T06:42:37;99546.91;;;13.32;46.63
44839;BME280;30576;42.098;24.876;2023-04-27T06:45:03;99544.72;;;13.48;47.39
44839;BME280;30576;42.098;24.876;2023-04-27T06:47:29;99557.38;;;13.68;46.79
44839;BME280;30576;42.098;24.876;2023-04-27T06:49:55;99547.81;;;13.92;45.08
44839;BME280;30576;42.098;24.876;2023-04-27T06:52:20;99548.84;;;13.58;46.42
44839;BME280;30576;42.098;24.876;2023-04-27T06:54:46;99552.25;;;13.61;45.50
44839;BME280;30576;42.098;24.876;2023-04-27T06:57:11;99543.06;;;13.73;46.55
44839;BME280;30576;42.098;24.876;2023-04-27T06:59:36;99547.94;;;13.57;46.25
44839;BME280;30576;42.098;24.876;2023-04-27T07:02:02;99560.78;;;13.71;45.83
44839;BME280;30576;42.098;24.876;2023-04-27T07:04:27;99564.06;;;13.50;46.11
44839;BME280;30576;42.098;24.876;2023-04-27T07:06:52;99561.88;;;13.34;46.07
44839;BME280;30576;42.098;24.876;2023-04-27T07:09:18;99561.47;;;13.48;46.49
44839;BME280;30576;42.098;24.876;2023-04-27T07:11:43;99565.16;;;13.44;46.59
44839;BME280;30576;42.098;24.876;2023-04-27T07:14:09;99562.28;;;13.52;46.54
44839;BME280;30576;42.098;24.876;2023-04-27T07:16:34;99566.72;;;13.50;47.33
44839;BME280;30576;42.098;24.876;2023-04-27T07:19:03;99560.88;;;13.38;45.65
44839;BME280;30576;42.098;24.876;2023-04-27T07:21:28;99567.44;;;13.23;47.70
44839;BME280;30576;42.098;24.876;2023-04-27T07:23:54;99558.00;;;13.46;47.50
44839;BME280;30576;42.098;24.876;2023-04-27T07:26:19;99558.53;;;13.89;48.75
44839;BME280;30576;42.098;24.876;2023-04-27T07:28:48;99557.16;;;14.04;45.90
44839;BME280;30576;42.098;24.876;2023-04-27T07:31:14;99559.41;;;13.88;48.02
44839;BME280;30576;42.098;24.876;2023-04-27T07:33:40;99555.44;;;14.03;48.58
44839;BME280;30576;42.098;24.876;2023-04-27T07:36:05;99556.22;;;14.33;46.59
44839;BME280;30576;42.098;24.876;2023-04-27T07:38:31;99553.31;;;14.41;45.60
44839;BME280;30576;42.098;24.876;2023-04-27T07:41:00;99548.81;;;14.44;46.08
44839;BME280;30576;42.098;24.876;2023-04-27T07:43:31;99559.97;;;14.81;45.95
44839;BME280;30576;42.098;24.876;2023-04-27T07:45:57;99561.44;;;14.90;46.99
44839;BME280;30576;42.098;24.876;2023-04-27T07:48:23;99553.69;;;14.57;45.55
44839;BME280;30576;42.098;24.876;2023-04-27T07:50:48;99552.91;;;14.26;46.17
44839;BME280;30576;42.098;24.876;2023-04-27T07:53:13;99546.34;;;14.38;45.46
44839;BME280;30576;42.098;24.876;2023-04-27T07:55:40;99552.16;;;14.49;45.82
44839;BME280;30576;42.098;24.876;2023-04-27T07:58:05;99554.44;;;14.62;44.85
44839;BME280;30576;42.098;24.876;2023-04-27T08:00:30;99551.03;;;14.83;45.49
44839;BME280;30576;42.098;24.876;2023-04-27T08:02:56;99557.22;;;15.09;44.05
44839;BME280;30576;42.098;24.876;2023-04-27T08:05:21;99560.16;;;15.01;43.06
44839;BME280;30576;42.098;24.876;2023-04-27T08:07:46;99563.31;;;14.88;44.14
44839;BME280;30576;42.098;24.876;2023-04-27T08:10:12;99519.81;;;14.65;43.47
44839;BME280;30576;42.098;24.876;2023-04-27T08:12:37;99570.69;;;14.78;42.92
44839;BME280;30576;42.098;24.876;2023-04-27T08:15:04;99559.22;;;14.77;41.62
44839;BME280;30576;42.098;24.876;2023-04-27T08:17:29;99553.97;;;14.76;41.33
44839;BME280;30576;42.098;24.876;2023-04-27T08:19:55;99556.06;;;15.16;45.47
44839;BME280;30576;42.098;24.876;2023-04-27T08:22:20;99559.19;;;15.53;42.42
44839;BME280;30576;42.098;24.876;2023-04-27T08:24:45;99550.69;;;15.67;41.56
44839;BME280;30576;42.098;24.876;2023-04-27T08:27:11;99552.53;;;16.10;41.32
44839;BME280;30576;42.098;24.876;2023-04-27T08:29:36;99543.00;;;15.83;40.43
44839;BME280;30576;42.098;24.876;2023-04-27T08:32:02;99545.53;;;15.62;41.92
44839;BME280;30576;42.098;24.876;2023-04-27T08:34:28;99553.75;;;15.32;40.10
44839;BME280;30576;42.098;24.876;2023-04-27T08:36:53;99542.88;;;15.38;39.49
44839;BME280;30576;42.098;24.876;2023-04-27T08:39:19;99547.03;;;15.69;41.09
44839;BME280;30576;42.098;24.876;2023-04-27T08:41:44;99539.81;;;15.49;40.59
44839;BME280;30576;42.098;24.876;2023-04-27T08:44:16;99533.94;;;15.65;39.70
44839;BME280;30576;42.098;24.876;2023-04-27T08:49:42;99531.81;;;15.97;38.78
44839;BME280;30576;42.098;24.876;2023-04-27T08:52:22;99530.69;;;16.24;39.67
44839;BME280;30576;42.098;24.876;2023-04-27T08:54:47;99524.75;;;16.40;40.83
44839;BME280;30576;42.098;24.876;2023-04-27T08:57:14;99520.09;;;16.45;41.69
44839;BME280;30576;42.098;24.876;2023-04-27T08:59:42;99521.47;;;16.33;38.87
44839;BME280;30576;42.098;24.876;2023-04-27T09:05:04;99512.31;;;16.18;39.95
44839;BME280;30576;42.098;24.876;2023-04-27T09:07:33;99507.59;;;16.47;39.03
44839;BME280;30576;42.098;24.876;2023-04-27T09:10:02;99503.16;;;17.09;40.43
44839;BME280;30576;42.098;24.876;2023-04-27T09:12:30;99502.22;;;17.10;39.48
44839;BME280;30576;42.098;24.876;2023-04-27T09:14:56;99504.63;;;16.96;39.41
44839;BME280;30576;42.098;24.876;2023-04-27T09:17:24;99504.63;;;17.16;38.81
44839;BME280;30576;42.098;24.876;2023-04-27T09:19:50;99507.22;;;17.56;38.97
44839;BME280;30576;42.098;24.876;2023-04-27T09:22:15;99506.50;;;17.33;37.80
44839;BME280;30576;42.098;24.876;2023-04-27T09:24:50;99499.06;;;17.21;38.82
44839;BME280;30576;42.098;24.876;2023-04-27T09:27:19;99502.69;;;17.39;37.38
44839;BME280;30576;42.098;24.876;2023-04-27T09:29:45;99498.16;;;17.98;39.17
44839;BME280;30576;42.098;24.876;2023-04-27T09:32:17;99488.81;;;18.07;36.35
44839;BME280;30576;42.098;24.876;2023-04-27T09:34:44;99492.84;;;18.16;38.06
44839;BME280;30576;42.098;24.876;2023-04-27T09:37:10;99489.13;;;17.44;39.75
44839;BME280;30576;42.098;24.876;2023-04-27T09:39:35;99495.44;;;17.43;38.39
44839;BME280;30576;42.098;24.876;2023-04-27T09:42:01;99483.81;;;17.44;36.50
44839;BME280;30576;42.098;24.876;2023-04-27T09:44:28;99478.03;;;17.53;37.24
44839;BME280;30576;42.098;24.876;2023-04-27T09:46:54;99473.75;;;17.11;35.89
44839;BME280;30576;42.098;24.876;2023-04-27T09:49:23;99486.31;;;17.28;37.70
44839;BME280;30576;42.098;24.876;2023-04-27T09:51:50;99471.03;;;17.69;38.39
44839;BME280;30576;42.098;24.876;2023-04-27T09:54:17;99483.72;;;17.83;38.42
44839;BME280;30576;42.098;24.876;2023-04-27T10:01:44;99474.66;;;17.87;37.68
44839;BME280;30576;42.098;24.876;2023-04-27T10:07:13;99469.13;;;17.92;38.62
44839;BME280;30576;42.098;24.876;2023-04-27T10:09:44;99478.84;;;17.55;40.42
44839;BME280;30576;42.098;24.876;2023-04-27T10:12:14;99472.72;;;17.72;40.40
44839;BME280;30576;42.098;24.876;2023-04-27T10:17:15;99484.84;;;17.41;38.38
44839;BME280;30576;42.098;24.876;2023-04-27T10:19:51;99472.28;;;17.81;39.32
44839;BME280;30576;42.098;24.876;2023-04-27T10:22:16;99471.75;;;17.73;38.13
44839;BME280;30576;42.098;24.876;2023-04-27T10:24:47;99479.22;;;17.47;38.99
44839;BME280;30576;42.098;24.876;2023-04-27T10:27:14;99484.63;;;17.46;39.68
44839;BME280;30576;42.098;24.876;2023-04-27T10:29:41;99477.97;;;17.74;41.01
44839;BME280;30576;42.098;24.876;2023-04-27T10:32:07;99479.06;;;17.69;38.55
44839;BME280;30576;42.098;24.876;2023-04-27T10:34:43;99481.03;;;17.07;39.89
44839;BME280;30576;42.098;24.876;2023-04-27T10:37:11;99474.09;;;17.43;40.06
44839;BME280;30576;42.098;24.876;2023-04-27T10:39:42;99480.34;;;17.42;39.42
44839;BME280;30576;42.098;24.876;2023-04-27T10:42:07;99475.59;;;17.67;40.49
44839;BME280;30576;42.098;24.876;2023-04-27T10:44:34;99473.34;;;17.96;40.55
44839;BME280;30576;42.098;24.876;2023-04-27T10:47:00;99481.94;;;18.03;38.99
44839;BME280;30576;42.098;24.876;2023-04-27T10:55:32;99476.59;;;18.03;39.56
44839;BME280;30576;42.098;24.876;2023-04-27T10:57:59;99483.72;;;17.83;39.73
44839;BME280;30576;42.098;24.876;2023-04-27T11:00:32;99486.06;;;17.91;40.52
44839;BME280;30576;42.098;24.876;2023-04-27T11:03:17;99484.50;;;17.85;40.63
44839;BME280;30576;42.098;24.876;2023-04-27T11:05:46;99477.75;;;17.78;39.37
44839;BME280;30576;42.098;24.876;2023-04-27T11:08:15;99482.94;;;17.62;40.26
44839;BME280;30576;42.098;24.876;2023-04-27T11:10:47;99483.53;;;17.69;39.71
44839;BME280;30576;42.098;24.876;2023-04-27T11:15:42;99492.63;;;17.46;41.50
44839;BME280;30576;42.098;24.876;2023-04-27T11:18:07;99495.75;;;16.75;38.73
44839;BME280;30576;42.098;24.876;2023-04-27T11:20:33;99490.34;;;16.35;37.97
44839;BME280;30576;42.098;24.876;2023-04-27T11:22:58;99497.06;;;16.44;38.15
44839;BME280;30576;42.098;24.876;2023-04-27T11:25:28;99498.50;;;16.31;37.71
44839;BME280;30576;42.098;24.876;2023-04-27T11:27:55;99499.44;;;16.29;38.23
44839;BME280;30576;42.098;24.876;2023-04-27T11:30:26;99498.50;;;16.31;38.27
44839;BME280;30576;42.098;24.876;2023-04-27T11:32:57;99496.66;;;16.10;39.19
44839;BME280;30576;42.098;24.876;2023-04-27T11:38:31;99508.19;;;16.74;37.08
44839;BME280;30576;42.098;24.876;2023-04-27T11:41:04;99504.63;;;16.96;38.70
44839;BME280;30576;42.098;24.876;2023-04-27T11:43:31;99510.56;;;17.03;36.77
44839;BME280;30576;42.098;24.876;2023-04-27T11:48:42;99501.28;;;17.11;36.77
44839;BME280;30576;42.098;24.876;2023-04-27T11:54:13;99498.09;;;17.62;37.18
44839;BME280;30576;42.098;24.876;2023-04-27T11:56:48;99494.75;;;17.76;35.81
44839;BME280;30576;42.098;24.876;2023-04-27T11:59:31;99486.84;;;17.93;37.23
44839;BME280;30576;42.098;24.876;2023-04-27T12:01:59;99489.63;;;18.09;34.15
44839;BME280;30576;42.098;24.876;2023-04-27T12:04:31;99502.06;;;17.72;34.80
44839;BME280;30576;42.098;24.876;2023-04-27T12:07:05;99498.16;;;17.41;33.87
44839;BME280;30576;42.098;24.876;2023-04-27T12:09:35;99489.16;;;17.63;37.58
44839;BME280;30576;42.098;24.876;2023-04-27T12:12:06;99484.66;;;17.82;35.43
44839;BME280;30576;42.098;24.876;2023-04-27T12:17:59;99484.69;;;18.01;32.86
44839;BME280;30576;42.098;24.876;2023-04-27T12:20:25;99492.16;;;18.12;34.13
44839;BME280;30576;42.098;24.876;2023-04-27T12:22:50;99481.75;;;18.60;34.92
44839;BME280;30576;42.098;24.876;2023-04-27T12:25:16;99479.38;;;18.71;34.40
44839;BME280;30576;42.098;24.876;2023-04-27T12:27:43;99492.25;;;18.46;31.82
44839;BME280;30576;42.098;24.876;2023-04-27T12:30:11;99483.53;;;18.59;32.68
44839;BME280;30576;42.098;24.876;2023-04-27T12:32:59;99486.34;;;18.21;33.07
44839;BME280;30576;42.098;24.876;2023-04-27T12:35:25;99489.28;;;18.34;33.81
44839;BME280;30576;42.098;24.876;2023-04-27T12:37:51;99485.75;;;18.34;32.96
44839;BME280;30576;42.098;24.876;2023-04-27T12:40:17;99490.13;;;18.17;32.62
44839;BME280;30576;42.098;24.876;2023-04-27T12:42:44;99488.41;;;17.97;32.66
44839;BME280;30576;42.098;24.876;2023-04-27T12:48:02;99486.69;;;17.96;32.25
44839;BME280;30576;42.098;24.876;2023-04-27T12:50:35;99475.53;;;18.42;34.40
44839;BME280;30576;42.098;24.876;2023-04-27T12:53:01;99487.31;;;18.90;32.36
44839;BME280;30576;42.098;24.876;2023-04-27T12:55:33;99478.97;;;18.96;33.06
44839;BME280;30576;42.098;24.876;2023-04-27T12:58:02;99478.47;;;19.06;33.63
44839;BME280;30576;42.098;24.876;2023-04-27T13:00:28;99478.94;;;19.14;32.83
44839;BME280;30576;42.098;24.876;2023-04-27T13:02:54;99476.13;;;19.33;33.17
44839;BME280;30576;42.098;24.876;2023-04-27T13:05:20;99476.69;;;19.06;33.25
44839;BME280;30576;42.098;24.876;2023-04-27T13:07:46;99482.81;;;18.73;34.03
44839;BME280;30576;42.098;24.876;2023-04-27T13:10:11;99476.69;;;18.71;37.43
44839;BME280;30576;42.098;24.876;2023-04-27T13:12:37;99482.44;;;18.64;37.77
44839;BME280;30576;42.098;24.876;2023-04-27T13:15:02;99473.56;;;18.46;39.47
44839;BME280;30576;42.098;24.876;2023-04-27T13:17:28;99474.03;;;18.19;38.29
44839;BME280;30576;42.098;24.876;2023-04-27T13:19:54;99476.69;;;18.19;38.42
44839;BME280;30576;42.098;24.876;2023-04-27T13:22:20;99486.59;;;17.98;43.42
44839;BME280;30576;42.098;24.876;2023-04-27T13:24:45;99475.38;;;17.72;42.89
44839;BME280;30576;42.098;24.876;2023-04-27T13:27:11;99481.28;;;17.79;43.73
44839;BME280;30576;42.098;24.876;2023-04-27T13:29:36;99477.53;;;18.19;41.28